createdAt,value
2018-11-10T00:02:06.434Z,100979.63
2018-11-10T00:04:34.598Z,100981.61
2018-11-10T00:07:02.833Z,100977.04
2018-11-10T00:09:31.049Z,100967.55
2018-11-10T00:11:59.176Z,100976.13
2018-11-10T00:14:27.337Z,100980.59
2018-11-10T00:16:55.443Z,100978.57
2018-11-10T00:19:23.587Z,100973.66
2018-11-10T00:21:51.764Z,100968.37
2018-11-10T00:24:20.010Z,100965.78
2018-11-10T00:26:48.160Z,100965.81
2018-11-10T00:29:16.299Z,100974.29
2018-11-10T00:31:44.434Z,100967.81
2018-11-10T00:34:12.621Z,100966.88
2018-11-10T00:36:40.812Z,100960.94
2018-11-10T00:39:09.717Z,100956.06
2018-11-10T00:41:37.966Z,100951.69
2018-11-10T00:44:06.146Z,100948.75
2018-11-10T00:46:34.317Z,100951.25
2018-11-10T00:49:02.641Z,100956.97
2018-11-10T00:51:30.927Z,100958.73
2018-11-10T00:53:59.063Z,100950.15
2018-11-10T00:56:27.401Z,100945.22
2018-11-10T00:58:55.512Z,100941.31
2018-11-10T01:01:30.534Z,100936.00
2018-11-10T01:03:58.687Z,100939.05
2018-11-10T01:06:26.883Z,100935.03
2018-11-10T01:08:55.080Z,100932.00
2018-11-10T01:11:23.238Z,100931.76
2018-11-10T01:13:51.417Z,100932.75
2018-11-10T01:16:19.541Z,100936.95
2018-11-10T01:18:47.643Z,100941.38
2018-11-10T01:21:15.765Z,100944.29
2018-11-10T01:23:43.897Z,100942.76
2018-11-10T01:26:12.063Z,100952.36
2018-11-10T01:28:40.357Z,100944.27
2018-11-10T01:31:08.581Z,100939.30
2018-11-10T01:33:36.899Z,100940.07
2018-11-10T01:36:05.191Z,100944.01
2018-11-10T01:38:33.400Z,100933.17
2018-11-10T01:41:01.497Z,100923.00
2018-11-10T01:43:29.642Z,100923.66
2018-11-10T01:45:57.812Z,100921.77
2018-11-10T01:48:25.985Z,100916.88
2018-11-10T01:50:54.099Z,100907.83
2018-11-10T01:53:22.355Z,100909.91
2018-11-10T01:55:50.472Z,100914.66
2018-11-10T01:58:18.649Z,100911.58
2018-11-10T02:00:46.996Z,100909.13
2018-11-10T02:03:15.127Z,100908.70
2018-11-10T02:05:49.861Z,100907.89
2018-11-10T02:08:17.987Z,100905.63
2018-11-10T02:10:46.092Z,100904.11
2018-11-10T02:13:14.217Z,100900.23
2018-11-10T02:15:42.377Z,100901.37
2018-11-10T02:18:10.539Z,100896.62
2018-11-10T02:20:38.699Z,100898.97
2018-11-10T02:23:06.811Z,100895.80
2018-11-10T02:25:34.971Z,100899.44
2018-11-10T02:28:03.348Z,100893.71
2018-11-10T02:30:31.547Z,100891.55
2018-11-10T02:32:59.863Z,100888.88
2018-11-10T02:35:28.032Z,100886.30
2018-11-10T02:37:56.204Z,100888.09
2018-11-10T02:40:24.378Z,100888.69
2018-11-10T02:42:52.653Z,100880.16
2018-11-10T02:45:20.773Z,100882.18
2018-11-10T02:47:48.895Z,100879.73
2018-11-10T02:50:17.013Z,100886.56
2018-11-10T02:52:45.156Z,100884.95
2018-11-10T02:55:13.296Z,100881.06
2018-11-10T02:57:41.935Z,100879.38
2018-11-10T03:00:11.269Z,100884.48
2018-11-10T03:02:39.529Z,100877.70
2018-11-10T03:05:08.030Z,100871.90
2018-11-10T03:07:36.404Z,100872.55
2018-11-10T03:10:05.208Z,100876.28
2018-11-10T03:12:33.345Z,100871.34
2018-11-10T03:15:01.488Z,100867.37
2018-11-10T03:17:29.632Z,100871.02
2018-11-10T03:19:57.771Z,100871.34
2018-11-10T03:22:25.953Z,100870.69
2018-11-10T03:24:54.092Z,100858.05
2018-11-10T03:27:22.277Z,100869.45
2018-11-10T03:29:50.403Z,100866.17
2018-11-10T03:32:18.577Z,100869.16
2018-11-10T03:34:46.715Z,100861.51
2018-11-10T03:37:14.830Z,100866.39
2018-11-10T03:39:42.924Z,100861.51
2018-11-10T03:42:11.059Z,100868.98
2018-11-10T03:44:39.185Z,100868.34
2018-11-10T03:47:07.301Z,100862.44
2018-11-10T03:49:35.375Z,100855.33
2018-11-10T03:52:03.483Z,100853.98
2018-11-10T03:54:31.573Z,100852.98
2018-11-10T03:56:59.694Z,100849.42
2018-11-10T03:59:27.965Z,100851.17
2018-11-10T04:01:56.229Z,100848.81
2018-11-10T04:04:24.372Z,100851.45
2018-11-10T04:06:52.489Z,100852.84
2018-11-10T04:09:20.715Z,100858.08
2018-11-10T04:11:48.831Z,100850.33
2018-11-10T04:14:16.964Z,100848.70
2018-11-10T04:16:45.203Z,100843.83
2018-11-10T04:19:13.602Z,100838.97
2018-11-10T04:21:41.707Z,100839.91
2018-11-10T04:24:09.935Z,100839.11
2018-11-10T04:26:38.171Z,100830.80
2018-11-10T04:29:06.617Z,100829.56
2018-11-10T04:31:34.881Z,100826.12
2018-11-10T04:34:03.041Z,100821.73
2018-11-10T04:36:31.207Z,100823.48
2018-11-10T04:38:59.335Z,100823.45
2018-11-10T04:41:27.435Z,100821.72
2018-11-10T04:43:55.683Z,100812.24
2018-11-10T04:46:23.821Z,100811.61
2018-11-10T04:48:51.981Z,100801.38
2018-11-10T04:51:20.287Z,100804.98
2018-11-10T04:53:48.380Z,100807.34
2018-11-10T04:56:16.544Z,100802.81
2018-11-10T04:58:44.721Z,100789.64
2018-11-10T05:01:12.877Z,100798.69
2018-11-10T05:03:41.094Z,100797.61
2018-11-10T05:06:09.217Z,100796.21
2018-11-10T05:08:37.371Z,100798.77
2018-11-10T05:11:06.064Z,100794.50
2018-11-10T05:13:34.172Z,100800.61
2018-11-10T05:16:02.396Z,100796.64
2018-11-10T05:18:31.411Z,100792.00
2018-11-10T05:20:59.584Z,100792.81
2018-11-10T05:23:27.725Z,100793.86
2018-11-10T05:25:55.960Z,100796.25
2018-11-10T05:28:24.185Z,100800.91
2018-11-10T05:30:52.336Z,100793.80
2018-11-10T05:33:20.471Z,100793.53
2018-11-10T05:35:48.626Z,100790.12
2018-11-10T05:38:16.738Z,100801.92
2018-11-10T05:40:44.867Z,100790.43
2018-11-10T05:43:12.988Z,100794.75
2018-11-10T05:45:41.120Z,100793.00
2018-11-10T05:48:09.332Z,100797.88
2018-11-10T05:50:37.468Z,100805.80
2018-11-10T05:53:05.701Z,100806.06
2018-11-10T05:55:33.829Z,100805.36
2018-11-10T05:58:02.173Z,100800.73
2018-11-10T06:00:30.298Z,100799.80
2018-11-10T06:02:58.517Z,100805.09
2018-11-10T06:05:26.586Z,100811.53
2018-11-10T06:07:54.666Z,100801.00
2018-11-10T06:10:22.897Z,100796.75
2018-11-10T06:12:50.925Z,100805.93
2018-11-10T06:15:18.995Z,100799.58
2018-11-10T06:17:47.141Z,100797.97
2018-11-10T06:20:15.279Z,100799.59
2018-11-10T06:22:43.387Z,100806.89
2018-11-10T06:25:11.956Z,100815.39
2018-11-10T06:27:40.338Z,100810.31
2018-11-10T06:30:09.719Z,100809.91
2018-11-10T06:32:38.181Z,100804.32
2018-11-10T06:35:06.569Z,100802.23
2018-11-10T06:37:34.898Z,100790.17
2018-11-10T06:40:03.047Z,100794.27
2018-11-10T06:42:31.245Z,100789.76
2018-11-10T06:44:59.364Z,100780.50
2018-11-10T06:47:27.498Z,100772.61
2018-11-10T06:49:55.623Z,100773.15
2018-11-10T06:52:23.755Z,100774.14
2018-11-10T06:54:51.856Z,100770.73
2018-11-10T06:57:20.053Z,100774.86
2018-11-10T06:59:48.179Z,100771.78
2018-11-10T07:02:16.323Z,100773.02
2018-11-10T07:04:44.499Z,100772.94
2018-11-10T07:07:12.613Z,100781.29
2018-11-10T07:09:40.730Z,100781.25
2018-11-10T07:12:08.841Z,100785.59
2018-11-10T07:14:36.986Z,100776.28
2018-11-10T07:17:05.335Z,100784.45
2018-11-10T07:19:33.488Z,100781.20
2018-11-10T07:22:01.649Z,100779.83
2018-11-10T07:24:29.837Z,100793.05
2018-11-10T07:26:57.944Z,100787.12
2018-11-10T07:29:26.094Z,100789.30
2018-11-10T07:31:54.333Z,100786.08
2018-11-10T07:34:22.388Z,100788.28
2018-11-10T07:36:50.522Z,100786.23
2018-11-10T07:39:18.712Z,100783.99
2018-11-10T07:41:46.844Z,100787.05
2018-11-10T07:44:15.040Z,100787.45
2018-11-10T07:46:43.176Z,100790.25
2018-11-10T07:49:11.326Z,100788.48
2018-11-10T07:51:39.407Z,100786.37
2018-11-10T07:54:07.563Z,100784.53
2018-11-10T07:56:35.657Z,100790.04
2018-11-10T07:59:03.784Z,100782.96
2018-11-10T08:01:31.985Z,100791.01
2018-11-10T08:04:00.101Z,100787.32
2018-11-10T08:06:28.233Z,100786.33
2018-11-10T08:08:56.350Z,100783.31
2018-11-10T08:11:24.468Z,100788.27
2018-11-10T08:13:52.750Z,100782.63
2018-11-10T08:16:20.886Z,100789.62
2018-11-10T08:18:49.097Z,100784.45
2018-11-10T08:21:17.476Z,100785.23
2018-11-10T08:23:45.759Z,100784.81
2018-11-10T08:26:13.932Z,100782.16
2018-11-10T08:28:42.089Z,100774.17
2018-11-10T08:31:10.322Z,100782.33
2018-11-10T08:33:38.445Z,100775.48
2018-11-10T08:36:06.606Z,100767.17
2018-11-10T08:38:34.768Z,100770.72
2018-11-10T08:41:02.878Z,100776.23
2018-11-10T08:43:31.028Z,100784.89
2018-11-10T08:45:59.246Z,100774.53
2018-11-10T08:48:27.395Z,100777.99
2018-11-10T08:50:55.583Z,100769.34
2018-11-10T08:53:23.730Z,100765.53
2018-11-10T08:55:51.900Z,100765.67
2018-11-10T08:58:20.120Z,100757.47
2018-11-10T09:00:48.304Z,100763.52
2018-11-10T09:03:16.475Z,100762.75
2018-11-10T09:05:44.672Z,100763.12
2018-11-10T09:08:12.879Z,100762.57
2018-11-10T09:10:41.026Z,100754.61
2018-11-10T09:13:09.147Z,100753.84
2018-11-10T09:15:37.318Z,100756.40
2018-11-10T09:18:05.914Z,100760.33
2018-11-10T09:20:34.069Z,100754.78
2018-11-10T09:23:02.242Z,100766.77
2018-11-10T09:25:30.367Z,100762.87
2018-11-10T09:27:58.642Z,100758.08
2018-11-10T09:30:26.785Z,100762.42
2018-11-10T09:32:55.116Z,100751.92
2018-11-10T09:35:23.278Z,100760.49
2018-11-10T09:37:51.402Z,100750.13
2018-11-10T09:40:19.520Z,100756.59
2018-11-10T09:42:47.684Z,100757.66
2018-11-10T09:45:16.806Z,100747.44
2018-11-10T09:47:44.944Z,100752.27
2018-11-10T09:50:16.534Z,100751.94
2018-11-10T09:52:45.136Z,100748.83
2018-11-10T09:55:14.008Z,100755.97
2018-11-10T09:57:42.193Z,100757.12
2018-11-10T10:00:15.901Z,100769.06
2018-11-10T10:02:44.465Z,100761.93
2018-11-10T10:05:12.656Z,100754.67
2018-11-10T10:07:41.670Z,100748.69
2018-11-10T10:10:11.590Z,100743.34
2018-11-10T10:12:39.781Z,100746.75
2018-11-10T10:15:09.998Z,100745.00
2018-11-10T10:17:38.382Z,100747.19
2018-11-10T10:20:09.032Z,100742.95
2018-11-10T10:22:37.166Z,100741.09
2018-11-10T10:25:06.508Z,100738.99
2018-11-10T10:27:34.722Z,100732.17
2018-11-10T10:30:03.021Z,100721.17
2018-11-10T10:32:31.190Z,100715.56
2018-11-10T10:34:59.465Z,100704.38
2018-11-10T10:37:27.646Z,100708.35
2018-11-10T10:39:55.801Z,100697.78
2018-11-10T10:42:24.014Z,100693.80
2018-11-10T10:44:52.230Z,100688.84
2018-11-10T10:47:20.401Z,100693.01
2018-11-10T10:49:48.642Z,100685.17
2018-11-10T10:52:16.823Z,100678.16
2018-11-10T10:54:45.040Z,100689.08
2018-11-10T10:57:13.683Z,100696.80
2018-11-10T10:59:41.812Z,100694.89
2018-11-10T11:02:15.264Z,100700.02
2018-11-10T11:04:44.298Z,100703.45
2018-11-10T11:07:12.468Z,100702.99
2018-11-10T11:09:40.943Z,100712.62
2018-11-10T11:12:09.149Z,100720.41
2018-11-10T11:14:37.302Z,100717.55
2018-11-10T11:17:05.618Z,100717.05
2018-11-10T11:19:33.892Z,100714.63
2018-11-10T11:22:02.296Z,100714.81
2018-11-10T11:24:30.517Z,100710.09
2018-11-10T11:26:58.973Z,100710.84
2018-11-10T11:29:27.231Z,100701.88
2018-11-10T11:31:55.266Z,100691.94
2018-11-10T11:34:23.396Z,100683.89
2018-11-10T11:36:51.604Z,100688.89
2018-11-10T11:39:20.068Z,100689.82
2018-11-10T11:41:48.380Z,100685.91
2018-11-10T11:44:16.505Z,100680.25
2018-11-10T11:46:44.660Z,100674.70
2018-11-10T11:49:12.805Z,100686.06
2018-11-10T11:51:41.020Z,100690.52
2018-11-10T11:54:09.236Z,100680.48
2018-11-10T11:56:37.396Z,100668.55
2018-11-10T11:59:05.852Z,100664.80
2018-11-10T12:01:34.098Z,100673.08
2018-11-10T12:04:02.345Z,100675.55
2018-11-10T12:06:30.551Z,100672.41
2018-11-10T12:08:58.682Z,100669.81
2018-11-10T12:11:26.838Z,100671.56
2018-11-10T12:13:54.958Z,100664.47
2018-11-10T12:16:27.183Z,100655.69
2018-11-10T12:18:51.301Z,100654.70
2018-11-10T12:21:19.446Z,100655.08
2018-11-10T12:23:47.616Z,100658.02
2018-11-10T12:26:15.779Z,100653.34
2018-11-10T12:28:43.976Z,100642.80
2018-11-10T12:31:12.096Z,100644.12
2018-11-10T12:33:40.250Z,100640.59
2018-11-10T12:36:08.392Z,100650.33
2018-11-10T12:38:36.587Z,100661.30
2018-11-10T12:41:04.672Z,100655.62
2018-11-10T12:43:32.910Z,100658.14
2018-11-10T12:46:01.160Z,100659.06
2018-11-10T12:48:29.338Z,100654.63
2018-11-10T12:50:57.452Z,100656.97
2018-11-10T12:53:25.615Z,100669.11
2018-11-10T12:55:53.811Z,100663.81
2018-11-10T12:58:21.964Z,100658.17
2018-11-10T13:00:50.131Z,100665.61
2018-11-10T13:03:18.297Z,100656.69
2018-11-10T13:05:46.439Z,100655.80
2018-11-10T13:08:14.733Z,100651.59
2018-11-10T13:10:42.837Z,100644.70
2018-11-10T13:13:11.022Z,100649.36
2018-11-10T13:15:39.261Z,100646.20
2018-11-10T13:18:07.409Z,100647.44
2018-11-10T13:20:35.565Z,100649.42
2018-11-10T13:23:03.747Z,100659.78
2018-11-10T13:25:31.868Z,100651.21
2018-11-10T13:28:00.009Z,100650.54
2018-11-10T13:30:28.199Z,100646.45
2018-11-10T13:32:56.341Z,100631.44
2018-11-10T13:35:24.519Z,100633.73
2018-11-10T13:37:52.652Z,100620.66
2018-11-10T13:40:20.838Z,100623.39
2018-11-10T13:42:49.013Z,100616.43
2018-11-10T13:45:17.323Z,100608.49
2018-11-10T13:47:45.617Z,100600.28
2018-11-10T13:50:13.857Z,100595.47
2018-11-10T13:52:43.186Z,100600.17
2018-11-10T13:55:11.214Z,100596.33
2018-11-10T13:57:39.729Z,100595.58
2018-11-10T14:00:10.230Z,100592.98
2018-11-10T14:02:38.369Z,100595.90
2018-11-10T14:05:06.730Z,100601.58
2018-11-10T14:07:34.944Z,100594.70
2018-11-10T14:10:03.121Z,100594.59
2018-11-10T14:12:31.311Z,100595.34
2018-11-10T14:14:59.485Z,100610.17
2018-11-10T14:17:27.722Z,100620.47
2018-11-10T14:19:55.913Z,100623.63
2018-11-10T14:22:24.103Z,100616.87
2018-11-10T14:24:52.349Z,100615.27
2018-11-10T14:27:20.517Z,100610.53
2018-11-10T14:29:48.705Z,100608.05
2018-11-10T14:32:16.927Z,100600.94
2018-11-10T14:34:45.117Z,100612.16
2018-11-10T14:37:13.386Z,100609.82
2018-11-10T14:39:41.565Z,100606.58
2018-11-10T14:42:09.717Z,100605.66
2018-11-10T14:44:38.183Z,100607.45
2018-11-10T14:47:13.121Z,100614.02
2018-11-10T14:49:41.367Z,100609.82
2018-11-10T14:52:09.547Z,100602.63
2018-11-10T14:54:37.812Z,100611.19
2018-11-10T14:57:06.191Z,100613.27
2018-11-10T14:59:34.389Z,100618.00
2018-11-10T15:02:02.651Z,100615.67
2018-11-10T15:04:30.780Z,100621.32
2018-11-10T15:06:59.146Z,100618.09
2018-11-10T15:09:27.305Z,100620.81
2018-11-10T15:11:55.574Z,100621.97
2018-11-10T15:14:23.606Z,100623.94
2018-11-10T15:16:52.065Z,100635.53
2018-11-10T15:19:20.191Z,100636.13
2018-11-10T15:21:48.343Z,100640.09
2018-11-10T15:24:16.551Z,100643.27
2018-11-10T15:26:44.710Z,100648.44
2018-11-10T15:29:12.934Z,100655.90
2018-11-10T15:31:41.213Z,100655.05
2018-11-10T15:34:09.466Z,100657.25
2018-11-10T15:36:37.674Z,100663.16
2018-11-10T15:39:06.703Z,100666.97
2018-11-10T15:41:34.854Z,100674.22
2018-11-10T15:44:03.051Z,100673.09
2018-11-10T15:46:31.228Z,100672.15
2018-11-10T15:48:59.390Z,100663.02
2018-11-10T15:51:27.576Z,100678.48
2018-11-10T15:53:55.719Z,100673.50
2018-11-10T15:56:23.909Z,100679.50
2018-11-10T15:58:52.088Z,100679.28
2018-11-10T16:01:20.262Z,100680.80
2018-11-10T16:03:48.483Z,100682.74
2018-11-10T16:06:16.669Z,100674.66
2018-11-10T16:08:44.824Z,100669.17
2018-11-10T16:11:12.996Z,100663.78
2018-11-10T16:13:41.151Z,100660.45
2018-11-10T16:16:09.312Z,100666.14
2018-11-10T16:18:39.363Z,100675.09
2018-11-10T16:21:07.514Z,100683.47
2018-11-10T16:23:35.672Z,100675.80
2018-11-10T16:26:03.851Z,100681.14
2018-11-10T16:28:32.074Z,100677.25
2018-11-10T16:31:00.261Z,100679.29
2018-11-10T16:33:28.461Z,100678.87
2018-11-10T16:35:56.709Z,100683.26
2018-11-10T16:38:24.928Z,100676.59
2018-11-10T16:40:53.101Z,100675.02
2018-11-10T16:43:21.281Z,100673.14
2018-11-10T16:45:49.526Z,100671.63
2018-11-10T16:48:17.677Z,100676.08
2018-11-10T16:50:45.806Z,100678.27
2018-11-10T16:53:13.997Z,100678.41
2018-11-10T16:55:42.151Z,100682.67
2018-11-10T16:58:10.307Z,100683.27
2018-11-10T17:00:38.530Z,100682.48
2018-11-10T17:03:06.673Z,100677.58
2018-11-10T17:05:34.901Z,100669.42
2018-11-10T17:08:03.122Z,100679.72
2018-11-10T17:10:31.313Z,100678.41
2018-11-10T17:12:59.424Z,100679.27
2018-11-10T17:15:27.689Z,100679.31
2018-11-10T17:17:55.876Z,100682.13
2018-11-10T17:20:24.033Z,100687.16
2018-11-10T17:22:52.233Z,100687.78
2018-11-10T17:25:20.465Z,100684.37
2018-11-10T17:27:48.648Z,100671.67
2018-11-10T17:30:19.562Z,100679.11
2018-11-10T17:32:47.977Z,100671.34
2018-11-10T17:35:16.211Z,100672.25
2018-11-10T17:37:44.750Z,100674.02
2018-11-10T17:40:13.570Z,100678.53
2018-11-10T17:42:41.744Z,100682.13
2018-11-10T17:45:12.021Z,100681.75
2018-11-10T17:47:40.209Z,100675.06
2018-11-10T17:50:09.805Z,100676.98
2018-11-10T17:52:38.541Z,100675.58
2018-11-10T17:55:07.218Z,100677.17
2018-11-10T17:57:35.432Z,100675.09
2018-11-10T18:00:04.035Z,100676.39
2018-11-10T18:02:32.258Z,100680.67
2018-11-10T18:05:00.418Z,100673.19
2018-11-10T18:07:28.592Z,100674.31
2018-11-10T18:09:56.839Z,100675.97
2018-11-10T18:12:25.138Z,100675.13
2018-11-10T18:14:53.480Z,100678.69
2018-11-10T18:17:21.914Z,100675.64
2018-11-10T18:19:50.106Z,100670.38
2018-11-10T18:22:18.294Z,100672.00
2018-11-10T18:24:46.630Z,100677.19
2018-11-10T18:27:14.899Z,100669.08
2018-11-10T18:29:43.119Z,100663.53
2018-11-10T18:32:11.507Z,100669.77
2018-11-10T18:34:39.744Z,100666.58
2018-11-10T18:37:08.038Z,100662.70
2018-11-10T18:39:36.309Z,100667.48
2018-11-10T18:42:04.416Z,100664.08
2018-11-10T18:44:32.622Z,100673.57
2018-11-10T18:47:00.840Z,100670.47
2018-11-10T18:49:29.126Z,100668.23
2018-11-10T18:51:57.462Z,100663.31
2018-11-10T18:54:25.642Z,100671.08
2018-11-10T18:56:53.888Z,100673.58
2018-11-10T18:59:22.089Z,100670.98
2018-11-10T19:01:50.277Z,100659.43
2018-11-10T19:04:18.490Z,100670.85
2018-11-10T19:06:46.658Z,100676.03
2018-11-10T19:09:14.824Z,100675.58
2018-11-10T19:11:42.994Z,100679.47
2018-11-10T19:14:11.159Z,100675.34
2018-11-10T19:16:39.357Z,100677.69
2018-11-10T19:19:07.923Z,100676.00
2018-11-10T19:21:36.116Z,100671.94
2018-11-10T19:24:04.567Z,100674.03
2018-11-10T19:26:32.734Z,100680.41
2018-11-10T19:29:00.943Z,100678.88
2018-11-10T19:31:29.145Z,100688.27
2018-11-10T19:33:57.382Z,100680.70
2018-11-10T19:36:25.579Z,100679.23
2018-11-10T19:38:53.833Z,100684.41
2018-11-10T19:41:22.050Z,100678.67
2018-11-10T19:43:50.320Z,100681.13
2018-11-10T19:46:19.413Z,100683.43
2018-11-10T19:48:47.643Z,100675.59
2018-11-10T19:51:16.754Z,100686.38
2018-11-10T19:53:44.958Z,100688.09
2018-11-10T19:56:13.384Z,100686.89
2018-11-10T19:58:41.579Z,100688.33
2018-11-10T20:01:10.590Z,100685.58
2018-11-10T20:03:38.900Z,100681.84
2018-11-10T20:06:07.177Z,100675.34
2018-11-10T20:08:35.365Z,100678.34
2018-11-10T20:11:03.556Z,100669.81
2018-11-10T20:13:31.751Z,100675.00
2018-11-10T20:16:00.007Z,100677.35
2018-11-10T20:18:28.297Z,100680.58
2018-11-10T20:20:56.508Z,100678.27
2018-11-10T20:23:24.785Z,100685.69
2018-11-10T20:25:52.965Z,100675.80
2018-11-10T20:28:21.192Z,100678.73
2018-11-10T20:30:49.386Z,100676.59
2018-11-10T20:33:17.610Z,100670.84
2018-11-10T20:35:45.913Z,100676.25
2018-11-10T20:38:14.118Z,100678.81
2018-11-10T20:40:42.949Z,100677.63
2018-11-10T20:43:11.250Z,100674.81
2018-11-10T20:45:40.186Z,100680.22
2018-11-10T20:48:08.408Z,100676.56
2018-11-10T20:50:36.659Z,100682.01
2018-11-10T20:53:05.062Z,100673.98
2018-11-10T20:55:33.250Z,100672.56
2018-11-10T20:58:01.459Z,100677.59
2018-11-10T21:00:30.092Z,100673.71
2018-11-10T21:02:58.278Z,100669.14
2018-11-10T21:05:26.495Z,100672.91
2018-11-10T21:07:54.767Z,100669.98
2018-11-10T21:10:22.976Z,100676.08
2018-11-10T21:12:51.546Z,100677.75
2018-11-10T21:15:20.467Z,100677.71
2018-11-10T21:17:49.468Z,100679.65
2018-11-10T21:20:18.299Z,100672.65
2018-11-10T21:22:46.491Z,100673.22
2018-11-10T21:25:16.296Z,100680.22
2018-11-10T21:27:44.912Z,100675.00
2018-11-10T21:30:15.507Z,100690.53
2018-11-10T21:32:44.134Z,100680.70
2018-11-10T21:35:12.503Z,100685.96
2018-11-10T21:37:40.684Z,100697.02
2018-11-10T21:40:11.433Z,100697.00
2018-11-10T21:42:39.945Z,100688.91
2018-11-10T21:45:09.124Z,100692.94
2018-11-10T21:47:37.365Z,100696.20
2018-11-10T21:50:07.642Z,100694.91
2018-11-10T21:52:35.973Z,100684.95
2018-11-10T21:55:05.545Z,100685.13
2018-11-10T21:57:34.104Z,100678.25
2018-11-10T22:00:02.318Z,100686.55
2018-11-10T22:02:30.585Z,100692.34
2018-11-10T22:04:58.756Z,100692.26
2018-11-10T22:07:26.955Z,100682.52
2018-11-10T22:09:55.210Z,100687.81
2018-11-10T22:12:23.408Z,100696.20
2018-11-10T22:14:51.590Z,100697.20
2018-11-10T22:17:19.844Z,100702.17
2018-11-10T22:19:47.989Z,100692.58
2018-11-10T22:22:16.163Z,100692.20
2018-11-10T22:24:44.321Z,100693.09
2018-11-10T22:27:12.522Z,100700.16
2018-11-10T22:29:40.668Z,100691.30
2018-11-10T22:32:08.850Z,100697.87
2018-11-10T22:34:37.029Z,100696.06
2018-11-10T22:37:05.255Z,100696.17
2018-11-10T22:39:33.398Z,100696.44
2018-11-10T22:42:01.573Z,100699.55
2018-11-10T22:44:29.769Z,100697.87
2018-11-10T22:46:57.929Z,100698.80
2018-11-10T22:49:26.089Z,100695.55
2018-11-10T22:51:54.215Z,100694.87
2018-11-10T22:54:22.443Z,100695.02
2018-11-10T22:56:50.607Z,100695.82
2018-11-10T22:59:18.760Z,100701.89
2018-11-10T23:01:46.970Z,100698.95
2018-11-10T23:04:15.138Z,100695.95
2018-11-10T23:06:43.292Z,100700.53
2018-11-10T23:09:11.402Z,100702.20
2018-11-10T23:11:39.533Z,100698.33
2018-11-10T23:14:07.681Z,100690.91
2018-11-10T23:16:35.812Z,100691.32
2018-11-10T23:19:04.038Z,100689.48
2018-11-10T23:21:32.186Z,100698.45
2018-11-10T23:24:00.341Z,100695.23
2018-11-10T23:26:28.492Z,100694.23
2018-11-10T23:28:56.677Z,100697.57
2018-11-10T23:31:24.821Z,100700.69
2018-11-10T23:33:53.001Z,100697.83
2018-11-10T23:36:21.128Z,100689.81
2018-11-10T23:38:49.304Z,100688.72
2018-11-10T23:41:17.477Z,100685.09
2018-11-10T23:43:45.612Z,100682.64
2018-11-10T23:46:13.749Z,100684.97
2018-11-10T23:48:41.891Z,100684.68
2018-11-10T23:51:10.063Z,100675.09
2018-11-10T23:53:38.183Z,100673.34
2018-11-10T23:56:06.325Z,100681.23
2018-11-10T23:58:34.495Z,100682.68
